Time;durP1;ratioP1;P1;durP2;ratioP2;P2;SDS_P1;SDS_P2;PMS_P1;PMS_P2;Temp;Humidity;BMP_temperature;BMP_pressure;BME280_temperature;BME280_humidity;BME280_pressure;Samples;Min_cycle;Max_cycle;Signal;HPM_P1;HPM_P2
2022/05/29 00:01:41;;;;;;;2.80;1.93;;;13.50;99.90;;;;;;4955032;28;20468;-65
2022/05/29 00:04:06;;;;;;;2.40;2.20;;;13.40;99.90;;;;;;4955032;28;20626;-65
2022/05/29 00:06:38;;;;;;;2.43;2.23;;;13.30;99.90;;;;;;4955316;28;20212;-65
2022/05/29 00:09:05;;;;;;;2.80;1.97;;;13.20;99.90;;;;;;4953870;29;20184;-65
2022/05/29 00:11:30;;;;;;;4.77;2.90;;;13.20;99.90;;;;;;4954706;28;20503;-66
2022/05/29 00:14:00;;;;;;;3.23;2.93;;;13.10;99.90;;;;;;4954770;28;20986;-66
2022/05/29 00:16:29;;;;;;;5.47;2.70;;;13.10;99.90;;;;;;4954842;28;20516;-66
2022/05/29 00:18:55;;;;;;;5.47;2.47;;;13.00;99.90;;;;;;4954690;28;20412;-66
2022/05/29 00:21:21;;;;;;;2.57;2.30;;;13.00;99.90;;;;;;4955162;28;20495;-65
2022/05/29 00:23:50;;;;;;;2.13;2.00;;;13.10;99.90;;;;;;4955080;28;20503;-65
2022/05/29 00:26:17;;;;;;;7.73;3.00;;;13.10;99.90;;;;;;4955196;28;20553;-65
2022/05/29 00:28:43;;;;;;;2.70;2.17;;;13.20;99.90;;;;;;4955237;28;20425;-65
2022/05/29 00:31:10;;;;;;;2.37;2.17;;;13.10;99.90;;;;;;4955057;28;20484;-66
2022/05/29 00:33:36;;;;;;;2.70;2.20;;;13.10;99.90;;;;;;4954709;28;20464;-66
2022/05/29 00:36:02;;;;;;;2.70;2.50;;;13.10;99.90;;;;;;4954374;28;20435;-66
2022/05/29 00:38:28;;;;;;;4.70;2.50;;;13.10;99.90;;;;;;4955015;28;20546;-66
2022/05/29 00:41:18;;;;;;;4.10;2.07;;;13.10;99.90;;;;;;4955096;28;20436;-65
2022/05/29 00:44:15;;;;;;;3.93;2.93;;;13.30;99.90;;;;;;4955457;28;20177;-65
2022/05/29 00:46:51;;;;;;;4.87;2.53;;;13.20;99.90;;;;;;4950689;28;20529;-65
2022/05/29 00:49:19;;;;;;;2.60;2.30;;;13.00;99.90;;;;;;4954300;28;20474;-65
2022/05/29 00:51:54;;;;;;;3.57;2.80;;;12.90;99.90;;;;;;4954843;28;20436;-66
2022/05/29 00:54:20;;;;;;;3.40;3.03;;;12.90;99.90;;;;;;4955139;28;20430;-65
2022/05/29 00:56:47;;;;;;;4.40;2.30;;;12.90;99.90;;;;;;4954800;28;20435;-66
2022/05/29 00:59:22;;;;;;;2.90;2.30;;;12.90;99.90;;;;;;4954562;28;20544;-65
2022/05/29 01:01:49;;;;;;;3.53;2.57;;;13.00;99.90;;;;;;4954997;28;20435;-66
2022/05/29 01:04:15;;;;;;;3.10;2.67;;;13.20;99.90;;;;;;4954973;28;20420;-66
2022/05/29 01:06:41;;;;;;;3.33;2.60;;;13.20;99.90;;;;;;4954485;28;20424;-66
2022/05/29 01:09:08;;;;;;;2.60;2.40;;;13.20;99.90;;;;;;4958405;28;20591;-65
2022/05/29 01:12:13;;;;;;;4.43;2.60;;;13.10;99.90;;;;;;4958589;28;20211;-66
2022/05/29 01:14:38;;;;;;;3.90;2.53;;;12.90;99.90;;;;;;4918161;29;20486;-65
2022/05/29 01:17:29;;;;;;;5.77;2.60;;;12.90;99.90;;;;;;4918163;29;20418;-65
2022/05/29 01:20:27;;;;;;;2.60;2.40;;;12.90;99.90;;;;;;4943329;28;20185;-66
2022/05/29 01:23:09;;;;;;;3.90;3.00;;;12.80;99.90;;;;;;4933081;29;20934;-64
2022/05/29 01:26:18;;;;;;;3.30;2.13;;;12.90;99.90;;;;;;4958381;28;20424;-65
2022/05/29 01:28:52;;;;;;;4.30;2.67;;;13.00;99.90;;;;;;4958685;28;20416;-66
2022/05/29 01:31:48;;;;;;;4.40;3.27;;;13.20;99.90;;;;;;4958566;28;20428;-64
2022/05/29 01:34:31;;;;;;;3.70;2.87;;;13.30;99.90;;;;;;4959233;28;20519;-66
2022/05/29 01:37:26;;;;;;;3.07;2.57;;;13.40;99.90;;;;;;4958945;28;20452;-66
2022/05/29 01:40:03;;;;;;;5.10;2.50;;;13.40;99.90;;;;;;4958176;28;20447;-66
2022/05/29 01:42:34;;;;;;;3.03;2.77;;;13.30;99.90;;;;;;4957751;28;20475;-66
2022/05/29 01:45:07;;;;;;;4.20;3.00;;;13.10;99.90;;;;;;4957851;28;20431;-65
2022/05/29 01:47:44;;;;;;;3.43;2.50;;;12.90;99.90;;;;;;4957680;28;20949;-65
2022/05/29 01:50:20;;;;;;;2.87;2.67;;;12.80;99.90;;;;;;4957453;28;20467;-65
2022/05/29 01:52:54;;;;;;;2.93;2.60;;;12.70;99.90;;;;;;4958268;28;20499;-65
2022/05/29 01:55:30;;;;;;;3.23;2.63;;;12.70;99.90;;;;;;4958128;28;20452;-66
2022/05/29 01:58:09;;;;;;;3.17;2.70;;;12.40;99.90;;;;;;4958170;28;20952;-65
2022/05/29 02:00:35;;;;;;;2.53;2.30;;;12.40;99.90;;;;;;4957671;28;21008;-66
2022/05/29 02:03:18;;;;;;;3.23;3.00;;;12.30;99.90;;;;;;4958287;28;20472;-65
2022/05/29 02:05:48;;;;;;;2.70;2.50;;;12.40;99.90;;;;;;4956979;28;20464;-66
2022/05/29 02:08:16;;;;;;;3.63;2.80;;;12.30;99.90;;;;;;4957983;28;20435;-66
2022/05/29 02:10:57;;;;;;;4.03;2.87;;;12.20;99.90;;;;;;4958034;28;20464;-66
2022/05/29 02:13:35;;;;;;;2.60;2.40;;;12.20;99.90;;;;;;4958153;28;20463;-66
2022/05/29 02:16:06;;;;;;;2.87;2.70;;;12.10;99.90;;;;;;4958592;28;20918;-65
2022/05/29 02:18:52;;;;;;;6.33;3.30;;;12.10;99.90;;;;;;4957411;28;20503;-66
2022/05/29 02:21:19;;;;;;;3.30;2.60;;;12.10;99.90;;;;;;4957941;29;20455;-65
2022/05/29 02:23:51;;;;;;;2.80;2.60;;;12.10;99.90;;;;;;4958784;28;20424;-65
2022/05/29 02:26:20;;;;;;;4.77;3.23;;;12.00;99.90;;;;;;4958830;28;20435;-64
2022/05/29 02:28:51;;;;;;;3.10;2.70;;;12.10;99.90;;;;;;4958767;28;20876;-66
2022/05/29 02:31:22;;;;;;;2.70;2.50;;;12.10;99.90;;;;;;4958548;28;20475;-67
2022/05/29 02:33:58;;;;;;;3.53;2.50;;;12.10;99.90;;;;;;4958007;28;20534;-65
2022/05/29 02:36:49;;;;;;;2.70;2.50;;;12.20;99.90;;;;;;4957532;28;20419;-67
2022/05/29 02:39:23;;;;;;;3.43;3.00;;;12.20;99.90;;;;;;4957957;28;20511;-65
2022/05/29 02:42:21;;;;;;;6.03;2.93;;;12.20;99.90;;;;;;4957848;28;20436;-66
2022/05/29 02:44:55;;;;;;;3.60;2.70;;;12.10;99.90;;;;;;4957789;28;20416;-66
2022/05/29 02:47:32;;;;;;;4.00;2.70;;;12.10;99.90;;;;;;4957990;28;20451;-66
2022/05/29 02:50:07;;;;;;;3.70;2.80;;;12.20;99.90;;;;;;4957561;28;20412;-65
2022/05/29 02:52:33;;;;;;;3.20;2.90;;;12.10;99.90;;;;;;4957892;28;20455;-66
2022/05/29 02:54:58;;;;;;;4.10;2.43;;;12.00;99.90;;;;;;4958255;28;20424;-64
2022/05/29 02:57:25;;;;;;;2.90;2.60;;;12.00;99.90;;;;;;4958474;28;20169;-66
2022/05/29 02:59:54;;;;;;;3.03;2.83;;;12.00;99.90;;;;;;4957854;28;20177;-66
2022/05/29 03:02:45;;;;;;;6.90;3.20;;;12.00;99.90;;;;;;4957391;28;21005;-65
2022/05/29 03:05:26;;;;;;;3.93;3.17;;;11.90;99.90;;;;;;4957421;28;20475;-65
2022/05/29 03:08:14;;;;;;;2.97;2.70;;;11.90;99.90;;;;;;4957493;28;20416;-65
2022/05/29 03:10:45;;;;;;;5.07;2.77;;;12.00;99.90;;;;;;4958068;28;20456;-66
2022/05/29 03:13:40;;;;;;;4.70;3.50;;;12.10;99.90;;;;;;4956395;28;20463;-66
2022/05/29 03:16:30;;;;;;;3.03;2.80;;;11.90;99.90;;;;;;4957893;28;20448;-66
2022/05/29 03:19:26;;;;;;;3.90;3.60;;;12.00;99.90;;;;;;4957710;28;20452;-66
2022/05/29 03:21:54;;;;;;;3.50;3.20;;;12.00;99.90;;;;;;4957700;28;20492;-65
2022/05/29 03:24:42;;;;;;;4.83;3.20;;;12.10;99.90;;;;;;4957071;28;20472;-66
2022/05/29 03:27:21;;;;;;;5.00;3.00;;;11.90;99.90;;;;;;4957335;28;20416;-67
2022/05/29 03:30:13;;;;;;;4.33;3.80;;;11.60;99.90;;;;;;4956897;28;20866;-65
2022/05/29 03:32:39;;;;;;;4.40;4.00;;;11.50;99.90;;;;;;4956394;28;21033;-66
2022/05/29 03:35:22;;;;;;;4.23;3.57;;;11.40;99.90;;;;;;4957020;28;20425;-66
2022/05/29 03:37:47;;;;;;;10.37;3.67;;;11.30;99.90;;;;;;4957269;28;20409;-66
2022/05/29 03:40:13;;;;;;;3.57;3.27;;;11.40;99.90;;;;;;4956338;28;20444;-66
2022/05/29 03:42:39;;;;;;;5.90;3.00;;;11.40;99.90;;;;;;4956377;28;20427;-65
2022/05/29 03:45:05;;;;;;;3.17;2.87;;;11.50;99.90;;;;;;4956773;28;20187;-66
2022/05/29 03:47:30;;;;;;;3.67;3.30;;;11.40;99.90;;;;;;4956472;28;20208;-66
2022/05/29 03:49:56;;;;;;;6.43;3.57;;;11.40;99.90;;;;;;4956134;28;20435;-65
2022/05/29 03:52:21;;;;;;;6.53;4.17;;;11.40;99.90;;;;;;4956627;28;20203;-67
2022/05/29 03:54:47;;;;;;;3.20;3.00;;;11.40;99.90;;;;;;4956573;28;20172;-66
2022/05/29 03:57:13;;;;;;;4.13;2.93;;;11.40;99.90;;;;;;4956709;28;20184;-66
2022/05/29 03:59:38;;;;;;;3.73;3.00;;;11.50;99.90;;;;;;4956259;28;20185;-65
2022/05/29 04:02:04;;;;;;;3.20;2.83;;;11.50;99.90;;;;;;4956153;28;20193;-66
2022/05/29 04:04:29;;;;;;;3.43;3.23;;;11.60;99.90;;;;;;4956609;28;20644;-66
2022/05/29 04:06:55;;;;;;;2.83;2.63;;;11.70;99.90;;;;;;4956903;28;20176;-65
2022/05/29 04:12:05;;;;;;;4.70;2.40;;;12.00;99.90;;;;;;4957065;29;20702;-65
2022/05/29 04:14:39;;;;;;;3.00;2.80;;;12.00;99.90;;;;;;4956857;28;20794;-66
2022/05/29 04:17:06;;;;;;;3.23;2.70;;;12.10;99.90;;;;;;4957149;28;20415;-66
2022/05/29 04:19:31;;;;;;;4.07;2.50;;;12.00;99.90;;;;;;4957113;28;20408;-66
2022/05/29 04:21:57;;;;;;;4.27;2.63;;;12.00;99.90;;;;;;4956143;28;20484;-64
2022/05/29 04:24:23;;;;;;;7.00;2.60;;;12.10;99.90;;;;;;4954520;28;20268;-65
2022/05/29 04:26:49;;;;;;;3.73;2.50;;;12.10;99.90;;;;;;4954173;28;20413;-65
2022/05/29 04:29:16;;;;;;;3.80;3.10;;;12.10;99.90;;;;;;4953996;28;20198;-65
2022/05/29 04:34:26;;;;;;;3.10;2.53;;;12.00;99.90;;;;;;4954332;28;20993;-65
2022/05/29 04:36:51;;;;;;;4.10;2.50;;;11.90;99.90;;;;;;4953985;28;20401;-65
2022/05/29 04:39:17;;;;;;;5.17;2.90;;;11.90;99.90;;;;;;4953759;28;20440;-64
2022/05/29 04:41:42;;;;;;;3.23;2.93;;;12.00;99.90;;;;;;4953680;28;20216;-64
2022/05/29 04:44:08;;;;;;;4.33;2.20;;;11.90;99.90;;;;;;4953995;28;20193;-65
2022/05/29 04:46:33;;;;;;;2.50;2.30;;;12.00;99.90;;;;;;4953888;28;20643;-65
2022/05/29 04:48:59;;;;;;;3.40;2.90;;;12.00;99.90;;;;;;4953626;28;20204;-64
2022/05/29 04:51:24;;;;;;;3.67;2.30;;;11.90;99.90;;;;;;4953760;28;20607;-65
2022/05/29 04:53:50;;;;;;;2.77;2.33;;;12.00;99.90;;;;;;4954010;28;20609;-65
2022/05/29 04:56:15;;;;;;;3.23;2.80;;;11.90;99.90;;;;;;4953976;28;20295;-64
2022/05/29 04:58:41;;;;;;;4.80;2.83;;;11.80;99.90;;;;;;4953540;28;20169;-66
2022/05/29 05:01:06;;;;;;;4.03;3.30;;;11.90;99.90;;;;;;4953643;28;20193;-65
2022/05/29 05:03:32;;;;;;;3.87;3.37;;;11.90;99.90;;;;;;4953887;28;20215;-65
2022/05/29 05:05:58;;;;;;;5.90;3.20;;;11.80;99.90;;;;;;4953698;28;20173;-66
2022/05/29 05:08:24;;;;;;;3.80;3.40;;;11.80;99.90;;;;;;4953491;28;20177;-65
2022/05/29 05:10:50;;;;;;;3.63;3.07;;;11.80;99.90;;;;;;4953675;28;20483;-64
2022/05/29 05:13:15;;;;;;;3.47;3.17;;;11.90;99.90;;;;;;4953744;28;20245;-64
2022/05/29 05:15:41;;;;;;;4.43;3.77;;;12.20;99.90;;;;;;4953656;28;20173;-66
2022/05/29 05:18:07;;;;;;;4.70;3.20;;;12.20;99.90;;;;;;4953600;28;20179;-65
2022/05/29 05:20:33;;;;;;;3.37;3.00;;;12.10;99.90;;;;;;4953368;28;20295;-64
2022/05/29 05:22:59;;;;;;;13.40;3.47;;;12.10;99.90;;;;;;4953640;28;20181;-65
2022/05/29 05:25:25;;;;;;;5.20;3.23;;;12.10;99.90;;;;;;4953637;28;20564;-64
2022/05/29 05:27:51;;;;;;;4.50;3.23;;;12.10;99.90;;;;;;4953655;28;20424;-65
2022/05/29 05:30:16;;;;;;;3.17;2.87;;;12.30;99.90;;;;;;4953212;28;20443;-65
2022/05/29 05:32:42;;;;;;;5.33;3.00;;;12.40;99.90;;;;;;4953402;28;20189;-67
2022/05/29 05:35:08;;;;;;;4.50;3.10;;;12.70;99.90;;;;;;4953518;28;20179;-64
2022/05/29 05:37:35;;;;;;;5.17;3.07;;;13.00;99.90;;;;;;4953479;28;20682;-64
2022/05/29 05:40:07;;;;;;;3.10;2.90;;;13.30;99.90;;;;;;4953362;28;20436;-65
2022/05/29 05:42:33;;;;;;;3.47;3.17;;;13.50;99.90;;;;;;4953543;28;20491;-64
2022/05/29 05:44:59;;;;;;;5.37;3.07;;;13.40;99.90;;;;;;4953437;28;20420;-64
2022/05/29 05:47:24;;;;;;;2.90;2.70;;;13.50;99.90;;;;;;4953396;28;20169;-65
2022/05/29 05:49:51;;;;;;;6.80;3.07;;;13.60;99.90;;;;;;4953016;28;20204;-64
2022/05/29 05:52:17;;;;;;;3.03;2.47;;;13.80;99.90;;;;;;4953308;28;20201;-64
2022/05/29 05:54:44;;;;;;;3.63;2.70;;;14.10;99.90;;;;;;4954810;28;20765;-65
2022/05/29 05:57:09;;;;;;;3.60;3.00;;;14.30;99.90;;;;;;4956805;28;20556;-64
2022/05/29 05:59:36;;;;;;;2.57;2.37;;;14.50;99.90;;;;;;4956425;28;20499;-66
2022/05/29 06:02:03;;;;;;;3.20;2.90;;;14.90;99.90;;;;;;4956566;28;20565;-64
2022/05/29 06:04:28;;;;;;;4.93;3.30;;;14.90;99.90;;;;;;4956819;28;20433;-64
2022/05/29 06:06:54;;;;;;;4.00;3.20;;;15.10;99.90;;;;;;4956613;28;21006;-65
2022/05/29 06:09:21;;;;;;;3.43;3.13;;;15.00;99.90;;;;;;4956205;28;20177;-66
2022/05/29 06:11:47;;;;;;;3.40;3.20;;;14.90;99.90;;;;;;4956588;28;20208;-64
2022/05/29 06:14:12;;;;;;;4.27;3.87;;;14.90;99.90;;;;;;4956438;28;20464;-64
2022/05/29 06:16:38;;;;;;;3.00;2.80;;;14.70;99.90;;;;;;4956297;28;20181;-65
2022/05/29 06:19:05;;;;;;;3.13;2.83;;;14.60;99.90;;;;;;4956282;28;20177;-65
2022/05/29 06:21:30;;;;;;;3.43;3.13;;;14.50;99.90;;;;;;4956271;28;20199;-65
2022/05/29 06:23:56;;;;;;;2.87;2.67;;;14.40;99.90;;;;;;4956338;28;20938;-66
2022/05/29 06:26:21;;;;;;;3.50;3.20;;;14.10;99.90;;;;;;4956314;28;20212;-64
2022/05/29 06:28:47;;;;;;;4.90;3.03;;;14.10;99.90;;;;;;4955913;28;20177;-64
2022/05/29 06:31:12;;;;;;;4.47;2.70;;;14.10;99.90;;;;;;4956086;28;20200;-64
2022/05/29 06:33:38;;;;;;;3.33;2.80;;;14.20;99.90;;;;;;4956121;28;20592;-65
2022/05/29 06:36:08;;;;;;;4.73;3.33;;;14.30;99.90;;;;;;4956272;28;20165;-65
2022/05/29 06:38:33;;;;;;;4.17;3.37;;;14.50;99.90;;;;;;4955810;28;20168;-65
2022/05/29 06:40:59;;;;;;;6.20;2.83;;;14.70;99.90;;;;;;4955984;28;20441;-64
2022/05/29 06:43:25;;;;;;;3.80;3.50;;;14.80;99.90;;;;;;4955987;28;20176;-64
2022/05/29 06:45:59;;;;;;;3.40;2.60;;;14.60;99.90;;;;;;4955835;28;20244;-65
2022/05/29 06:48:25;;;;;;;4.37;3.07;;;14.60;99.90;;;;;;4955732;28;20650;-65
2022/05/29 06:50:50;;;;;;;3.20;2.90;;;14.70;99.90;;;;;;4955707;28;20455;-66
2022/05/29 06:53:16;;;;;;;5.70;2.60;;;14.50;99.90;;;;;;4955738;28;20203;-64
2022/05/29 06:55:50;;;;;;;11.57;6.03;;;14.70;99.90;;;;;;4955853;28;20216;-64
2022/05/29 06:58:16;;;;;;;4.27;3.77;;;15.00;99.90;;;;;;4955374;28;20215;-65
2022/05/29 07:08:53;;;;;;;3.40;3.10;;;15.40;99.90;;;;;;4955205;29;20435;-64
2022/05/29 07:11:22;;;;;;;3.37;2.73;;;15.40;99.90;;;;;;4955293;28;20472;-64
2022/05/29 07:13:48;;;;;;;2.40;2.20;;;15.70;99.90;;;;;;4955320;28;20193;-65
2022/05/29 07:16:15;;;;;;;6.03;3.30;;;15.60;99.90;;;;;;4955343;28;20426;-65
2022/05/29 07:18:41;;;;;;;4.80;2.80;;;15.50;99.90;;;;;;4955048;28;20165;-65
2022/05/29 07:21:07;;;;;;;3.70;2.03;;;15.60;99.90;;;;;;4955135;28;20441;-65
2022/05/29 07:23:34;;;;;;;5.53;2.43;;;15.90;99.90;;;;;;4955196;28;20479;-65
2022/05/29 07:26:00;;;;;;;4.20;2.77;;;16.30;99.90;;;;;;4955279;28;20177;-65
2022/05/29 07:28:25;;;;;;;2.50;2.30;;;16.50;99.90;;;;;;4954825;28;20432;-64
2022/05/29 07:30:52;;;;;;;4.27;2.83;;;16.40;99.90;;;;;;4953734;28;20232;-65
2022/05/29 07:33:18;;;;;;;4.33;2.80;;;16.20;99.90;;;;;;4954965;28;20197;-64
2022/05/29 07:35:43;;;;;;;2.60;2.40;;;16.40;99.40;;;;;;4954878;28;20519;-66
2022/05/29 07:38:09;;;;;;;2.50;2.30;;;16.30;99.20;;;;;;4954832;28;20176;-66
2022/05/29 07:40:35;;;;;;;3.67;2.73;;;16.50;98.80;;;;;;4954723;28;20184;-67
2022/05/29 07:43:18;;;;;;;4.57;2.57;;;16.60;99.00;;;;;;4954894;28;20421;-65
2022/05/29 07:45:48;;;;;;;2.10;1.87;;;16.90;98.80;;;;;;4954906;28;20259;-66
2022/05/29 07:48:15;;;;;;;10.20;2.97;;;17.20;98.20;;;;;;4954380;28;20425;-66
2022/05/29 07:50:41;;;;;;;3.90;2.53;;;17.30;97.80;;;;;;4954663;28;20595;-65
2022/05/29 07:53:06;;;;;;;7.70;3.27;;;17.00;98.00;;;;;;4954574;28;20563;-65
2022/05/29 07:55:32;;;;;;;4.57;2.73;;;16.70;98.10;;;;;;4954608;28;20203;-65
2022/05/29 07:57:58;;;;;;;3.73;2.50;;;16.60;98.60;;;;;;4954653;28;20177;-64
2022/05/29 08:00:24;;;;;;;6.47;3.63;;;16.60;97.90;;;;;;4954219;28;20219;-65
2022/05/29 08:02:49;;;;;;;3.00;2.77;;;16.40;97.60;;;;;;4954418;28;20185;-66
2022/05/29 08:05:18;;;;;;;3.40;2.70;;;16.10;98.20;;;;;;4954523;28;20175;-66
2022/05/29 08:07:45;;;;;;;3.77;2.03;;;16.30;98.50;;;;;;4954422;28;20173;-66
2022/05/29 08:10:13;;;;;;;6.67;3.33;;;15.90;99.10;;;;;;4954191;28;20986;-65
2022/05/29 08:12:39;;;;;;;5.13;2.77;;;15.70;99.90;;;;;;4954297;28;20463;-66
2022/05/29 08:15:05;;;;;;;2.93;2.63;;;15.40;99.90;;;;;;4954389;28;20425;-66
2022/05/29 08:17:32;;;;;;;5.37;2.63;;;15.40;99.90;;;;;;4953717;28;20417;-65
2022/05/29 08:19:57;;;;;;;5.97;2.83;;;15.40;99.90;;;;;;4953953;28;20417;-65
2022/05/29 08:22:23;;;;;;;2.57;2.20;;;15.40;99.90;;;;;;4954156;28;20476;-65
2022/05/29 08:33:09;;;;;;;5.33;2.90;;;15.50;99.90;;;;;;4954098;29;20830;-65
2022/05/29 08:35:35;;;;;;;4.00;3.00;;;15.40;99.90;;;;;;4952770;28;20935;-65
2022/05/29 08:38:02;;;;;;;5.00;3.03;;;14.90;99.90;;;;;;4953967;28;20795;-64
2022/05/29 08:40:30;;;;;;;4.90;2.57;;;14.70;99.90;;;;;;4953449;28;20534;-65
2022/05/29 08:42:56;;;;;;;9.83;3.20;;;14.40;99.90;;;;;;4953950;28;20475;-65
2022/05/29 08:45:22;;;;;;;4.43;2.83;;;14.50;99.90;;;;;;4953868;28;20922;-65
2022/05/29 08:47:49;;;;;;;4.33;3.80;;;14.50;99.90;;;;;;4953964;28;20459;-65
2022/05/29 08:50:32;;;;;;;8.73;3.20;;;14.30;99.90;;;;;;4953560;28;20444;-64
2022/05/29 08:53:05;;;;;;;3.30;3.00;;;14.10;99.90;;;;;;4953768;28;20468;-65
2022/05/29 08:55:46;;;;;;;3.23;2.93;;;14.10;99.90;;;;;;4953801;28;20797;-65
2022/05/29 08:58:18;;;;;;;4.07;2.70;;;13.90;99.90;;;;;;4953683;28;20429;-64
2022/05/29 09:00:47;;;;;;;6.77;3.50;;;13.60;99.90;;;;;;4953732;28;20448;-66
2022/05/29 09:03:43;;;;;;;4.30;2.73;;;13.40;99.90;;;;;;4953670;28;20432;-64
2022/05/29 09:06:17;;;;;;;5.63;3.27;;;13.60;99.90;;;;;;4953833;28;20512;-65
2022/05/29 09:08:55;;;;;;;6.33;3.00;;;13.30;99.90;;;;;;4953411;28;20427;-65
2022/05/29 09:11:47;;;;;;;4.37;3.97;;;13.30;99.90;;;;;;4953533;28;20456;-66
2022/05/29 09:14:15;;;;;;;3.67;3.10;;;13.40;99.90;;;;;;4953672;28;20468;-65
2022/05/29 09:16:45;;;;;;;6.90;4.17;;;13.50;99.90;;;;;;4953708;28;20419;-65
2022/05/29 09:19:26;;;;;;;4.47;3.53;;;13.70;99.90;;;;;;4953443;28;20792;-65
2022/05/29 09:22:11;;;;;;;3.47;3.17;;;13.80;99.90;;;;;;4953636;28;20921;-65
2022/05/29 09:24:52;;;;;;;3.07;2.33;;;14.00;99.90;;;;;;4953586;28;20427;-65
2022/05/29 09:27:18;;;;;;;5.03;2.70;;;14.10;99.90;;;;;;4953613;28;20412;-66
2022/05/29 09:29:44;;;;;;;4.33;1.93;;;14.20;99.90;;;;;;4956234;28;20444;-66
2022/05/29 09:32:17;;;;;;;6.13;2.60;;;14.50;99.90;;;;;;4957133;28;20425;-64
2022/05/29 09:34:48;;;;;;;2.30;1.83;;;14.60;99.90;;;;;;4955918;28;20181;-66
2022/05/29 09:37:29;;;;;;;3.10;2.57;;;15.10;99.90;;;;;;4957187;28;20416;-64
2022/05/29 09:39:58;;;;;;;4.50;2.30;;;15.60;99.90;;;;;;4956821;28;20794;-66
2022/05/29 09:42:30;;;;;;;3.17;2.20;;;15.70;99.90;;;;;;4957140;28;20416;-65
2022/05/29 09:45:11;;;;;;;5.43;1.80;;;16.50;99.10;;;;;;4956892;28;20420;-65
2022/05/29 09:50:36;;;;;;;4.43;2.17;;;17.70;94.90;;;;;;4956890;29;20455;-65
2022/05/29 09:53:02;;;;;;;3.57;2.17;;;17.40;95.80;;;;;;4956783;28;20448;-64
2022/05/29 09:55:32;;;;;;;2.93;2.30;;;17.50;94.70;;;;;;4956801;28;20475;-65
2022/05/29 09:58:06;;;;;;;4.73;2.50;;;17.80;94.20;;;;;;4956884;28;20628;-64
2022/05/29 10:00:54;;;;;;;4.47;3.03;;;18.50;93.60;;;;;;4956508;28;20445;-65
2022/05/29 10:03:52;;;;;;;5.13;4.10;;;20.00;92.20;;;;;;4955464;28;20897;-65
2022/05/29 10:06:43;;;;;;;4.17;2.33;;;21.50;87.40;;;;;;4956692;28;20420;-65
2022/05/29 10:09:21;;;;;;;2.73;2.50;;;20.80;81.70;;;;;;4956368;28;20430;-65
2022/05/29 10:11:49;;;;;;;4.70;2.37;;;19.90;83.80;;;;;;4956868;28;20981;-65
2022/05/29 10:14:35;;;;;;;3.63;1.73;;;19.20;87.30;;;;;;4956352;28;20484;-66
2022/05/29 10:17:01;;;;;;;4.90;2.70;;;18.30;86.70;;;;;;4956465;28;20934;-64
2022/05/29 10:19:42;;;;;;;4.13;2.10;;;17.40;90.10;;;;;;4956402;28;20413;-65
2022/05/29 10:22:29;;;;;;;2.40;1.60;;;17.20;90.80;;;;;;4956863;28;20507;-65
2022/05/29 10:24:55;;;;;;;3.83;2.60;;;17.00;91.00;;;;;;4956326;28;20497;-65
2022/05/29 10:27:35;;;;;;;4.73;3.80;;;16.10;93.00;;;;;;4956287;28;20934;-65
2022/05/29 10:30:06;;;;;;;2.50;2.30;;;15.90;95.50;;;;;;4955935;28;20203;-65
2022/05/29 10:32:35;;;;;;;5.53;3.47;;;15.80;96.50;;;;;;4955990;29;20495;-65
2022/05/29 10:35:26;;;;;;;3.17;2.90;;;15.70;97.50;;;;;;4956053;28;20475;-65
2022/05/29 10:37:53;;;;;;;4.40;2.80;;;15.50;99.70;;;;;;4955982;28;20416;-65
2022/05/29 10:40:32;;;;;;;3.70;3.17;;;15.10;99.90;;;;;;4955080;28;20841;-65
2022/05/29 10:43:00;;;;;;;2.70;2.50;;;15.40;99.90;;;;;;4955799;28;20420;-65
2022/05/29 10:45:31;;;;;;;4.40;2.33;;;15.40;99.90;;;;;;4955764;28;20487;-65
2022/05/29 10:48:23;;;;;;;5.20;2.43;;;15.20;99.90;;;;;;4955950;28;20452;-65
2022/05/29 10:51:08;;;;;;;5.60;2.57;;;15.10;99.90;;;;;;4955753;28;20468;-65
2022/05/29 10:53:54;;;;;;;5.00;3.30;;;14.80;99.90;;;;;;4955488;28;20938;-65
2022/05/29 10:56:40;;;;;;;3.63;2.27;;;14.50;99.90;;;;;;4955802;28;20423;-65
2022/05/29 10:59:27;;;;;;;5.47;3.60;;;14.80;99.90;;;;;;4955327;28;20926;-65
2022/05/29 11:05:03;;;;;;;2.60;2.00;;;15.90;99.90;;;;;;4955555;29;20804;-65
2022/05/29 11:08:01;;;;;;;2.17;2.00;;;16.70;99.90;;;;;;4955439;28;20920;-65
2022/05/29 11:10:48;;;;;;;2.17;1.87;;;17.00;99.90;;;;;;4954516;29;20482;-65
2022/05/29 11:13:51;;;;;;;3.17;1.87;;;17.30;99.20;;;;;;4955258;28;20551;-65
2022/05/29 11:16:45;;;;;;;2.50;1.80;;;17.10;98.40;;;;;;4955355;28;20412;-65
2022/05/29 11:19:45;;;;;;;3.67;2.37;;;17.10;98.30;;;;;;4955041;28;20424;-65
2022/05/29 11:22:25;;;;;;;2.03;1.63;;;17.60;96.60;;;;;;4955180;28;20424;-65
2022/05/29 11:25:35;;;;;;;2.20;1.73;;;18.50;94.40;;;;;;4955044;28;20793;-65
2022/05/29 11:28:46;;;;;;;5.93;1.80;;;18.50;92.80;;;;;;4944875;28;20447;-65
2022/05/29 11:31:20;;;;;;;2.50;1.80;;;18.90;92.40;;;;;;4954929;28;20928;-65
2022/05/29 11:34:04;;;;;;;1.60;1.50;;;19.30;91.20;;;;;;4955024;28;20867;-65
2022/05/29 11:37:01;;;;;;;2.00;1.57;;;19.00;90.90;;;;;;4955199;28;20423;-65
2022/05/29 11:39:42;;;;;;;2.70;2.50;;;18.40;91.30;;;;;;4954563;29;20427;-65
2022/05/29 11:42:20;;;;;;;2.17;1.80;;;18.40;91.80;;;;;;4955234;28;20505;-65
2022/05/29 11:45:04;;;;;;;2.03;1.43;;;19.40;90.50;;;;;;4954829;28;20424;-65
2022/05/29 11:53:32;;;;;;;1.90;1.80;;;24.70;66.70;;;;;;4953914;28;20459;-66
2022/05/29 11:56:03;;;;;;;1.47;1.37;;;26.20;60.10;;;;;;4954738;28;20416;-66
2022/05/29 11:58:37;;;;;;;4.90;2.03;;;26.70;56.70;;;;;;4954339;28;20500;-65
2022/05/29 12:01:11;;;;;;;1.97;1.30;;;26.30;56.20;;;;;;4954686;28;20439;-65
2022/05/29 12:03:43;;;;;;;2.80;2.00;;;24.20;56.60;;;;;;4954568;28;20425;-65
2022/05/29 12:06:26;;;;;;;4.07;1.83;;;22.10;59.20;;;;;;4954385;28;20433;-65
2022/05/29 12:09:05;;;;;;;3.10;2.10;;;21.30;61.40;;;;;;4954073;28;20475;-65
2022/05/29 12:11:31;;;;;;;2.00;1.90;;;19.80;64.10;;;;;;4954261;28;20452;-65
2022/05/29 12:14:05;;;;;;;3.03;2.33;;;19.10;68.40;;;;;;4954171;28;20506;-65
2022/05/29 12:16:33;;;;;;;2.60;1.70;;;20.00;68.10;;;;;;4954399;28;20169;-65
2022/05/29 12:19:02;;;;;;;2.17;1.63;;;22.10;65.40;;;;;;4953925;28;20444;-66
2022/05/29 12:22:00;;;;;;;2.27;1.60;;;24.80;58.10;;;;;;4954095;28;20452;-66
2022/05/29 12:24:29;;;;;;;2.17;1.23;;;26.30;55.50;;;;;;4954270;28;20420;-66
2022/05/29 12:27:13;;;;;;;1.70;1.60;;;27.80;51.50;;;;;;4954134;28;20428;-66
2022/05/29 12:29:53;;;;;;;3.60;2.00;;;27.90;50.10;;;;;;4953825;28;20412;-66
2022/05/29 12:32:35;;;;;;;2.90;2.60;;;28.80;48.50;;;;;;4954060;28;20421;-66
2022/05/29 12:35:18;;;;;;;3.20;1.60;;;27.60;48.80;;;;;;4954045;28;20416;-66
2022/05/29 12:38:08;;;;;;;5.70;1.80;;;28.60;47.40;;;;;;4953684;28;20409;-66
2022/05/29 12:41:11;;;;;;;1.47;1.30;;;29.50;44.00;;;;;;4953764;28;20436;-66
2022/05/29 12:44:05;;;;;;;1.47;1.20;;;27.90;43.00;;;;;;4953786;28;20511;-66
2022/05/29 12:46:33;;;;;;;2.80;2.07;;;26.80;44.80;;;;;;4953988;28;20476;-66
2022/05/29 12:49:30;;;;;;;4.27;2.37;;;25.20;47.10;;;;;;4953770;28;20459;-65
2022/05/29 12:52:13;;;;;;;3.73;2.00;;;24.50;53.30;;;;;;4953755;28;20463;-65
2022/05/29 12:54:56;;;;;;;2.40;2.03;;;23.60;52.40;;;;;;4953813;28;20499;-65
2022/05/29 12:57:40;;;;;;;3.73;2.67;;;23.50;53.20;;;;;;4953895;28;20416;-65
2022/05/29 13:00:40;;;;;;;3.20;1.97;;;24.30;52.90;;;;;;4953499;28;20957;-66
2022/05/29 13:03:35;;;;;;;2.47;2.27;;;25.90;50.90;;;;;;4954019;28;20428;-66
2022/05/29 13:06:15;;;;;;;3.43;2.37;;;26.80;49.20;;;;;;4957689;28;20428;-65
2022/05/29 13:09:10;;;;;;;2.30;2.10;;;26.30;49.00;;;;;;4957422;28;20567;-65
2022/05/29 13:11:40;;;;;;;3.40;2.37;;;24.60;51.40;;;;;;4957489;28;20468;-65
2022/05/29 13:14:08;;;;;;;2.53;1.70;;;24.00;52.60;;;;;;4957531;28;20476;-65
2022/05/29 13:16:40;;;;;;;5.43;2.53;;;24.00;52.40;;;;;;4957622;28;20423;-65
2022/05/29 13:19:14;;;;;;;2.83;2.00;;;23.00;53.30;;;;;;4957216;28;20427;-65
2022/05/29 13:22:00;;;;;;;4.20;2.83;;;22.20;54.60;;;;;;4957386;28;20523;-65
2022/05/29 13:24:46;;;;;;;2.33;1.73;;;21.70;55.30;;;;;;4957306;28;20424;-65
2022/05/29 13:27:12;;;;;;;3.00;2.20;;;21.50;55.80;;;;;;4957391;28;20511;-65
2022/05/29 13:29:48;;;;;;;4.70;2.20;;;21.60;56.20;;;;;;4957010;28;20499;-65
2022/05/29 13:32:13;;;;;;;4.53;2.13;;;21.20;57.30;;;;;;4957111;28;20204;-65
2022/05/29 13:35:12;;;;;;;2.13;2.00;;;21.80;55.60;;;;;;4957521;28;20424;-65
2022/05/29 13:37:43;;;;;;;2.27;1.80;;;22.30;54.40;;;;;;4951267;28;20185;-65
2022/05/29 13:40:21;;;;;;;2.20;2.00;;;23.30;52.50;;;;;;4956791;28;20432;-66
2022/05/29 13:42:51;;;;;;;3.50;1.87;;;22.90;51.70;;;;;;4957043;28;20419;-66
2022/05/29 13:45:23;;;;;;;2.13;1.70;;;22.20;52.90;;;;;;4957081;28;21013;-66
2022/05/29 13:48:05;;;;;;;5.60;1.90;;;22.10;53.20;;;;;;4956928;28;20439;-66
2022/05/29 13:50:45;;;;;;;2.50;1.90;;;21.10;54.70;;;;;;4956535;28;20432;-65
2022/05/29 13:53:34;;;;;;;3.77;1.90;;;21.00;53.20;;;;;;4956793;28;20463;-65